Airfield :
LOGIN :

Register | Disclaimer

   EN    FR    IT 

 










Legend :    VFR   Marginal VFR   IFR   Intensive IFR   Very Intensive IFR
Visi :
Ceiling :
>= 8 km
>= 3000ft
5 to 8 km
1000 to 3000 ft
1500m to 5 km
500 to 1000 ft
800 to 1500m
200 to 500 ft
< 800m
< 200 ft
Symbols :   Thunderstorms  Fog  Heavy snow  Heavy precipitations  Wind > 20 kt
SIGMETs :     Misc.  Thunderstorms  Icing  Turbulence  Mountain Waves  Volcanic Ashes






- Airport Elevation : 142 ft
- IATA code : ALC


LEAL - Alicante

CURRENT METAR :
  • 190600Z 27009KT CAVOK 24/13 Q1011 NOSIG

EXPIRED METARs :
  • 190530Z 27008KT 9999 FEW030 24/13 Q1011 NOSIG
  • 190500Z 29004KT 250V330 9999 FEW020 23/14 Q1011 NOSIG
  • 190430Z 28006KT 9999 FEW020 23/15 Q1011 NOSIG
  • 190400Z 24007KT 9999 FEW020 22/16 Q1010 NOSIG
  • 190330Z 24006KT 200V260 9999 FEW020 21/18 Q1010 NOSIG
  • 190300Z 23007KT 200V260 9999 FEW020 21/18 Q1010 NOSIG
  • 190230Z 24006KT 200V280 9999 FEW020 21/18 Q1011 NOSIG
  • 190200Z 24005KT 200V270 9999 FEW020 21/18 Q1011 NOSIG
  • 190130Z 22003KT 9999 FEW020 21/18 Q1011 NOSIG

TAF TAF LEAL
Valid from the 19 at 06:00 until the 20 at 06:00 UTC


190500Z 1906/2006 VRB04KT 9999 FEW015 TX30/1914Z TN20/1906Z
PROB30
TEMPO 1906/1909 30010KT
BECMG 1910/1912 18010KT
PROB40
TEMPO 1912/1915 18015G25KT
TEMPO 1920/2002 VRB08KT TSRA FEW050CB



MET'MAP, your aeronautical weather chart ! - Copyright ORBIFLY December 2007 - Disclaimer

ORBIFLY MET'MAP TEAM :

Programming & Development : Alexandra Zaïnal
Original concept : Baudouin d'Aumeries
Technical & hardware support : Manuel Goepfert
Assistance : Marc-Olivier Méhu




SOURCES & CREDITS :

   NOAA